sensor_id;sensor_type;location;lat;lon;timestamp;pressure;altitude;pressure_sealevel;temperature;humidity
60871;BME280;46714;50.118;14.462;2023-01-16T00:01:22;97921.47;;;3.07;77.63
60871;BME280;46714;50.118;14.462;2023-01-16T00:03:50;97916.31;;;3.05;77.92
60871;BME280;46714;50.118;14.462;2023-01-16T00:06:15;97906.59;;;3.04;78.62
60871;BME280;46714;50.118;14.462;2023-01-16T00:08:41;97905.75;;;3.04;77.91
60871;BME280;46714;50.118;14.462;2023-01-16T00:11:07;97909.69;;;3.01;77.96
60871;BME280;46714;50.118;14.462;2023-01-16T00:13:33;97909.69;;;3.01;77.89
60871;BME280;46714;50.118;14.462;2023-01-16T00:15:59;97905.34;;;3.00;78.89
60871;BME280;46714;50.118;14.462;2023-01-16T00:18:24;97903.03;;;2.97;78.55
60871;BME280;46714;50.118;14.462;2023-01-16T00:20:50;97896.81;;;2.97;78.74
60871;BME280;46714;50.118;14.462;2023-01-16T00:23:15;97895.19;;;2.96;78.58
60871;BME280;46714;50.118;14.462;2023-01-16T00:25:42;97888.94;;;2.95;78.83
60871;BME280;46714;50.118;14.462;2023-01-16T00:28:09;97895.38;;;2.94;78.58
60871;BME280;46714;50.118;14.462;2023-01-16T00:30:35;97888.31;;;2.93;79.26
60871;BME280;46714;50.118;14.462;2023-01-16T00:33:00;97886.66;;;2.92;78.73
60871;BME280;46714;50.118;14.462;2023-01-16T00:35:26;97884.16;;;2.90;78.85
60871;BME280;46714;50.118;14.462;2023-01-16T00:37:52;97881.47;;;2.90;78.80
60871;BME280;46714;50.118;14.462;2023-01-16T00:40:18;97889.13;;;2.87;78.59
60871;BME280;46714;50.118;14.462;2023-01-16T00:42:44;97884.56;;;2.87;78.52
60871;BME280;46714;50.118;14.462;2023-01-16T00:45:09;97878.56;;;2.85;79.59
60871;BME280;46714;50.118;14.462;2023-01-16T00:47:35;97875.44;;;2.82;78.89
60871;BME280;46714;50.118;14.462;2023-01-16T00:50:01;97866.94;;;2.78;79.05
60871;BME280;46714;50.118;14.462;2023-01-16T00:52:26;97868.81;;;2.78;79.21
60871;BME280;46714;50.118;14.462;2023-01-16T00:54:51;97868.19;;;2.76;79.73
60871;BME280;46714;50.118;14.462;2023-01-16T00:57:17;97864.03;;;2.73;79.92
60871;BME280;46714;50.118;14.462;2023-01-16T00:59:42;97877.66;;;2.71;79.14
60871;BME280;46714;50.118;14.462;2023-01-16T01:02:07;97877.84;;;2.70;79.89
60871;BME280;46714;50.118;14.462;2023-01-16T01:04:33;97883.22;;;2.70;79.64
60871;BME280;46714;50.118;14.462;2023-01-16T01:06:58;97881.31;;;2.64;79.45
60871;BME280;46714;50.118;14.462;2023-01-16T01:09:23;97881.69;;;2.61;80.32
60871;BME280;46714;50.118;14.462;2023-01-16T01:11:49;97887.88;;;2.55;80.33
60871;BME280;46714;50.118;14.462;2023-01-16T01:14:14;97885.78;;;2.50;80.82
60871;BME280;46714;50.118;14.462;2023-01-16T01:16:39;97894.00;;;2.48;80.61
60871;BME280;46714;50.118;14.462;2023-01-16T01:19:05;97896.88;;;2.47;80.76
60871;BME280;46714;50.118;14.462;2023-01-16T01:21:30;97894.00;;;2.48;80.58
60871;BME280;46714;50.118;14.462;2023-01-16T01:23:56;97887.00;;;2.47;80.10
60871;BME280;46714;50.118;14.462;2023-01-16T01:26:21;97883.66;;;2.45;81.04
60871;BME280;46714;50.118;14.462;2023-01-16T01:28:47;97871.47;;;2.43;80.74
60871;BME280;46714;50.118;14.462;2023-01-16T01:31:12;97873.28;;;2.42;81.01
60871;BME280;46714;50.118;14.462;2023-01-16T01:33:38;97861.34;;;2.45;80.69
60871;BME280;46714;50.118;14.462;2023-01-16T01:36:05;97858.47;;;2.46;80.09
60871;BME280;46714;50.118;14.462;2023-01-16T01:38:31;97867.34;;;2.47;80.55
60871;BME280;46714;50.118;14.462;2023-01-16T01:40:57;97867.56;;;2.45;81.08
60871;BME280;46714;50.118;14.462;2023-01-16T01:46:19;97862.38;;;2.44;80.50
60871;BME280;46714;50.118;14.462;2023-01-16T01:48:51;97858.88;;;2.43;81.14
60871;BME280;46714;50.118;14.462;2023-01-16T01:51:24;97855.53;;;2.41;80.66
60871;BME280;46714;50.118;14.462;2023-01-16T01:53:58;97861.28;;;2.38;80.85
60871;BME280;46714;50.118;14.462;2023-01-16T01:56:32;97850.53;;;2.38;81.06
60871;BME280;46714;50.118;14.462;2023-01-16T01:59:06;97850.13;;;2.35;80.65
60871;BME280;46714;50.118;14.462;2023-01-16T02:01:36;97843.06;;;2.34;81.38
60871;BME280;46714;50.118;14.462;2023-01-16T02:04:03;97847.63;;;2.33;81.38
60871;BME280;46714;50.118;14.462;2023-01-16T02:06:37;97849.66;;;2.31;81.40
60871;BME280;46714;50.118;14.462;2023-01-16T02:09:14;97839.13;;;2.29;81.56
60871;BME280;46714;50.118;14.462;2023-01-16T02:11:56;97845.75;;;2.34;81.31
60871;BME280;46714;50.118;14.462;2023-01-16T02:14:26;97838.91;;;2.31;81.15
60871;BME280;46714;50.118;14.462;2023-01-16T02:16:59;97827.81;;;2.34;81.30
60871;BME280;46714;50.118;14.462;2023-01-16T02:22:43;97811.13;;;2.39;81.22
60871;BME280;46714;50.118;14.462;2023-01-16T02:28:10;97804.69;;;2.40;80.69
60871;BME280;46714;50.118;14.462;2023-01-16T02:44:27;97790.63;;;2.38;80.36
60871;BME280;46714;50.118;14.462;2023-01-16T02:47:14;97784.00;;;2.34;81.00
60871;BME280;46714;50.118;14.462;2023-01-16T02:50:00;97781.53;;;2.32;81.15
60871;BME280;46714;50.118;14.462;2023-01-16T02:52:40;97775.13;;;2.33;80.98
60871;BME280;46714;50.118;14.462;2023-01-16T02:55:14;97768.75;;;2.34;80.81
60871;BME280;46714;50.118;14.462;2023-01-16T02:57:49;97758.63;;;2.36;80.98
60871;BME280;46714;50.118;14.462;2023-01-16T03:00:19;97752.22;;;2.37;80.79
60871;BME280;46714;50.118;14.462;2023-01-16T03:02:46;97746.03;;;2.37;80.33
60871;BME280;46714;50.118;14.462;2023-01-16T03:05:12;97748.72;;;2.37;80.57
60871;BME280;46714;50.118;14.462;2023-01-16T03:07:42;97744.56;;;2.34;80.70
60871;BME280;46714;50.118;14.462;2023-01-16T03:13:48;97728.06;;;2.37;79.67
60871;BME280;46714;50.118;14.462;2023-01-16T03:27:50;97719.84;;;2.45;79.12
60871;BME280;46714;50.118;14.462;2023-01-16T03:32:52;97717.81;;;2.47;78.91
60871;BME280;46714;50.118;14.462;2023-01-16T03:38:04;97714.06;;;2.48;79.51
60871;BME280;46714;50.118;14.462;2023-01-16T03:40:35;97705.97;;;2.42;79.77
60871;BME280;46714;50.118;14.462;2023-01-16T03:43:07;97705.97;;;2.42;78.90
60871;BME280;46714;50.118;14.462;2023-01-16T03:48:20;97691.09;;;2.39;78.75
60871;BME280;46714;50.118;14.462;2023-01-16T03:50:56;97690.28;;;2.39;79.46
60871;BME280;46714;50.118;14.462;2023-01-16T03:53:26;97682.22;;;2.39;79.81
60871;BME280;46714;50.118;14.462;2023-01-16T03:56:01;97680.75;;;2.36;79.36
60871;BME280;46714;50.118;14.462;2023-01-16T03:58:33;97681.78;;;2.35;80.30
60871;BME280;46714;50.118;14.462;2023-01-16T04:06:23;97668.09;;;2.23;80.32
60871;BME280;46714;50.118;14.462;2023-01-16T04:08:56;97662.91;;;2.22;80.30
60871;BME280;46714;50.118;14.462;2023-01-16T04:11:26;97668.50;;;2.20;79.87
60871;BME280;46714;50.118;14.462;2023-01-16T04:13:53;97653.41;;;2.19;78.98
60871;BME280;46714;50.118;14.462;2023-01-16T04:16:21;97651.75;;;2.18;79.67
60871;BME280;46714;50.118;14.462;2023-01-16T04:18:48;97642.88;;;2.18;79.88
60871;BME280;46714;50.118;14.462;2023-01-16T04:21:18;97647.22;;;2.19;79.08
60871;BME280;46714;50.118;14.462;2023-01-16T04:23:43;97645.16;;;2.21;78.68
60871;BME280;46714;50.118;14.462;2023-01-16T04:26:09;97640.63;;;2.21;78.39
60871;BME280;46714;50.118;14.462;2023-01-16T04:28:34;97630.69;;;2.22;77.44
60871;BME280;46714;50.118;14.462;2023-01-16T04:31:00;97634.84;;;2.24;77.98
60871;BME280;46714;50.118;14.462;2023-01-16T04:33:25;97625.97;;;2.24;77.73
60871;BME280;46714;50.118;14.462;2023-01-16T04:35:50;97622.28;;;2.25;78.74
60871;BME280;46714;50.118;14.462;2023-01-16T04:38:16;97614.00;;;2.26;78.14
60871;BME280;46714;50.118;14.462;2023-01-16T04:40:41;97609.84;;;2.24;78.06
60871;BME280;46714;50.118;14.462;2023-01-16T04:43:07;97607.16;;;2.24;78.91
60871;BME280;46714;50.118;14.462;2023-01-16T04:45:32;97593.75;;;2.24;79.08
60871;BME280;46714;50.118;14.462;2023-01-16T04:47:58;97599.34;;;2.22;79.31
60871;BME280;46714;50.118;14.462;2023-01-16T04:50:23;97598.91;;;2.19;78.88
60871;BME280;46714;50.118;14.462;2023-01-16T04:52:48;97604.03;;;2.14;79.23
60871;BME280;46714;50.118;14.462;2023-01-16T04:55:14;97600.72;;;2.12;78.99
60871;BME280;46714;50.118;14.462;2023-01-16T04:57:40;97591.84;;;2.11;78.86
60871;BME280;46714;50.118;14.462;2023-01-16T05:00:07;97585.03;;;2.08;79.44
60871;BME280;46714;50.118;14.462;2023-01-16T05:02:34;97580.69;;;2.07;79.48
60871;BME280;46714;50.118;14.462;2023-01-16T05:04:59;97583.78;;;2.04;79.56
60871;BME280;46714;50.118;14.462;2023-01-16T05:07:24;97581.09;;;2.04;80.00
60871;BME280;46714;50.118;14.462;2023-01-16T05:09:53;97574.69;;;2.05;80.03
60871;BME280;46714;50.118;14.462;2023-01-16T05:12:18;97579.03;;;2.06;80.22
60871;BME280;46714;50.118;14.462;2023-01-16T05:14:44;97569.94;;;2.07;80.71
60871;BME280;46714;50.118;14.462;2023-01-16T05:17:10;97568.72;;;2.10;80.96
60871;BME280;46714;50.118;14.462;2023-01-16T05:19:35;97565.22;;;2.09;80.31
60871;BME280;46714;50.118;14.462;2023-01-16T05:22:00;97563.16;;;2.12;80.05
60871;BME280;46714;50.118;14.462;2023-01-16T05:24:26;97552.81;;;2.15;79.35
60871;BME280;46714;50.118;14.462;2023-01-16T05:26:51;97546.84;;;2.20;79.13
60871;BME280;46714;50.118;14.462;2023-01-16T05:29:16;97542.75;;;2.24;78.73
60871;BME280;46714;50.118;14.462;2023-01-16T05:31:42;97533.69;;;2.25;79.38
60871;BME280;46714;50.118;14.462;2023-01-16T05:34:08;97536.13;;;2.26;78.84
60871;BME280;46714;50.118;14.462;2023-01-16T05:36:33;97535.53;;;2.31;78.97
60871;BME280;46714;50.118;14.462;2023-01-16T05:38:59;97537.84;;;2.34;78.48
60871;BME280;46714;50.118;14.462;2023-01-16T05:41:25;97529.16;;;2.39;78.92
60871;BME280;46714;50.118;14.462;2023-01-16T05:43:50;97522.75;;;2.40;78.70
60871;BME280;46714;50.118;14.462;2023-01-16T05:46:15;97513.47;;;2.42;79.00
60871;BME280;46714;50.118;14.462;2023-01-16T05:48:42;97515.94;;;2.44;77.62
60871;BME280;46714;50.118;14.462;2023-01-16T05:51:07;97510.38;;;2.45;77.41
60871;BME280;46714;50.118;14.462;2023-01-16T05:53:33;97511.84;;;2.48;75.94
60871;BME280;46714;50.118;14.462;2023-01-16T05:55:58;97502.53;;;2.50;76.33
60871;BME280;46714;50.118;14.462;2023-01-16T05:58:24;97508.94;;;2.49;75.65
60871;BME280;46714;50.118;14.462;2023-01-16T06:00:49;97509.78;;;2.50;75.55
60871;BME280;46714;50.118;14.462;2023-01-16T06:03:15;97506.47;;;2.48;75.82
60871;BME280;46714;50.118;14.462;2023-01-16T06:05:43;97503.16;;;2.46;76.21
60871;BME280;46714;50.118;14.462;2023-01-16T06:08:09;97498.59;;;2.46;75.82
60871;BME280;46714;50.118;14.462;2023-01-16T06:10:34;97492.22;;;2.47;76.50
60871;BME280;46714;50.118;14.462;2023-01-16T06:13:01;97482.28;;;2.48;76.81
60871;BME280;46714;50.118;14.462;2023-01-16T06:15:27;97467.19;;;2.47;77.10
60871;BME280;46714;50.118;14.462;2023-01-16T06:17:53;97466.19;;;2.48;76.22
60871;BME280;46714;50.118;14.462;2023-01-16T06:20:20;97464.31;;;2.48;76.76
60871;BME280;46714;50.118;14.462;2023-01-16T06:22:45;97454.19;;;2.50;75.68
60871;BME280;46714;50.118;14.462;2023-01-16T06:25:11;97447.78;;;2.51;75.79
60871;BME280;46714;50.118;14.462;2023-01-16T06:27:36;97438.72;;;2.53;75.47
60871;BME280;46714;50.118;14.462;2023-01-16T06:30:03;97422.59;;;2.53;74.63
60871;BME280;46714;50.118;14.462;2023-01-16T06:32:29;97412.88;;;2.51;75.01
60871;BME280;46714;50.118;14.462;2023-01-16T06:34:55;97413.28;;;2.48;75.30
60871;BME280;46714;50.118;14.462;2023-01-16T06:37:20;97407.09;;;2.48;75.02
60871;BME280;46714;50.118;14.462;2023-01-16T06:39:45;97399.88;;;2.48;74.50
60871;BME280;46714;50.118;14.462;2023-01-16T06:42:11;97416.59;;;2.44;74.19
60871;BME280;46714;50.118;14.462;2023-01-16T06:44:36;97411.22;;;2.37;75.08
60871;BME280;46714;50.118;14.462;2023-01-16T06:47:01;97403.97;;;2.31;74.77
60871;BME280;46714;50.118;14.462;2023-01-16T06:49:27;97403.59;;;2.27;76.15
60871;BME280;46714;50.118;14.462;2023-01-16T06:51:53;97401.28;;;2.24;76.31
60871;BME280;46714;50.118;14.462;2023-01-16T06:54:18;97403.56;;;2.21;75.46
60871;BME280;46714;50.118;14.462;2023-01-16T06:56:44;97393.25;;;2.18;76.13
60871;BME280;46714;50.118;14.462;2023-01-16T06:59:09;97393.66;;;2.15;76.52
60871;BME280;46714;50.118;14.462;2023-01-16T07:01:34;97388.06;;;2.09;75.47
60871;BME280;46714;50.118;14.462;2023-01-16T07:04:00;97384.56;;;2.09;76.09
60871;BME280;46714;50.118;14.462;2023-01-16T07:06:26;97380.44;;;2.06;75.55
60871;BME280;46714;50.118;14.462;2023-01-16T07:08:51;97378.78;;;2.05;76.67
60871;BME280;46714;50.118;14.462;2023-01-16T07:11:17;97379.81;;;2.04;76.23
60871;BME280;46714;50.118;14.462;2023-01-16T07:13:44;97376.31;;;2.04;76.33
60871;BME280;46714;50.118;14.462;2023-01-16T07:16:10;97369.28;;;2.03;76.03
60871;BME280;46714;50.118;14.462;2023-01-16T07:18:55;97366.16;;;1.99;76.00
60871;BME280;46714;50.118;14.462;2023-01-16T07:21:40;97358.13;;;1.99;76.80
60871;BME280;46714;50.118;14.462;2023-01-16T07:24:26;97362.66;;;1.99;76.36
60871;BME280;46714;50.118;14.462;2023-01-16T07:26:55;97363.91;;;1.96;76.00
60871;BME280;46714;50.118;14.462;2023-01-16T07:29:23;97369.69;;;1.93;76.69
60871;BME280;46714;50.118;14.462;2023-01-16T07:31:49;97367.41;;;1.90;76.08
60871;BME280;46714;50.118;14.462;2023-01-16T07:34:15;97375.44;;;1.90;76.00
60871;BME280;46714;50.118;14.462;2023-01-16T07:36:40;97370.06;;;1.90;76.38
60871;BME280;46714;50.118;14.462;2023-01-16T07:39:06;97371.94;;;1.89;76.66
60871;BME280;46714;50.118;14.462;2023-01-16T07:41:31;97367.63;;;1.88;75.84
60871;BME280;46714;50.118;14.462;2023-01-16T07:43:56;97369.25;;;1.89;76.25
60871;BME280;46714;50.118;14.462;2023-01-16T07:46:22;97357.72;;;1.89;76.06
60871;BME280;46714;50.118;14.462;2023-01-16T07:48:47;97353.97;;;1.90;76.43
60871;BME280;46714;50.118;14.462;2023-01-16T07:51:12;97346.34;;;1.87;76.41
60871;BME280;46714;50.118;14.462;2023-01-16T07:53:38;97338.31;;;1.87;76.97
60871;BME280;46714;50.118;14.462;2023-01-16T07:56:03;97330.25;;;1.87;76.69
60871;BME280;46714;50.118;14.462;2023-01-16T07:58:29;97339.97;;;1.88;76.53
60871;BME280;46714;50.118;14.462;2023-01-16T08:00:55;97331.31;;;1.86;76.95
60871;BME280;46714;50.118;14.462;2023-01-16T08:03:22;97324.25;;;1.85;76.77
60871;BME280;46714;50.118;14.462;2023-01-16T08:05:48;97316.03;;;1.86;76.71
60871;BME280;46714;50.118;14.462;2023-01-16T08:08:16;97308.59;;;1.88;76.47
60871;BME280;46714;50.118;14.462;2023-01-16T08:10:43;97311.28;;;1.88;76.57
60871;BME280;46714;50.118;14.462;2023-01-16T08:13:08;97304.88;;;1.89;76.27
60871;BME280;46714;50.118;14.462;2023-01-16T08:15:34;97293.13;;;1.91;76.34
60871;BME280;46714;50.118;14.462;2023-01-16T08:17:59;97298.50;;;1.91;75.97
60871;BME280;46714;50.118;14.462;2023-01-16T08:20:24;97283.41;;;1.89;76.27
60871;BME280;46714;50.118;14.462;2023-01-16T08:22:50;97278.66;;;1.92;75.93
60871;BME280;46714;50.118;14.462;2023-01-16T08:25:17;97281.16;;;1.93;75.96
60871;BME280;46714;50.118;14.462;2023-01-16T08:27:44;97273.09;;;1.93;75.75
60871;BME280;46714;50.118;14.462;2023-01-16T08:30:10;97263.19;;;1.94;75.68
60871;BME280;46714;50.118;14.462;2023-01-16T08:32:40;97254.53;;;1.98;75.69
60871;BME280;46714;50.118;14.462;2023-01-16T08:35:06;97247.09;;;2.00;75.27
60871;BME280;46714;50.118;14.462;2023-01-16T08:37:32;97233.69;;;2.00;75.17
60871;BME280;46714;50.118;14.462;2023-01-16T08:39:58;97235.13;;;2.03;75.27
60871;BME280;46714;50.118;14.462;2023-01-16T08:42:24;97223.38;;;2.04;75.84
60871;BME280;46714;50.118;14.462;2023-01-16T08:45:18;97222.75;;;2.08;75.81
60871;BME280;46714;50.118;14.462;2023-01-16T08:48:02;97210.97;;;2.09;75.75
60871;BME280;46714;50.118;14.462;2023-01-16T08:50:46;97197.13;;;2.13;75.96
60871;BME280;46714;50.118;14.462;2023-01-16T08:53:31;97194.84;;;2.16;75.81
60871;BME280;46714;50.118;14.462;2023-01-16T08:55:57;97185.53;;;2.19;75.66
60871;BME280;46714;50.118;14.462;2023-01-16T08:58:23;97179.97;;;2.20;74.64
60871;BME280;46714;50.118;14.462;2023-01-16T09:00:49;97163.63;;;2.22;75.43
60871;BME280;46714;50.118;14.462;2023-01-16T09:03:15;97174.78;;;2.25;74.97
60871;BME280;46714;50.118;14.462;2023-01-16T09:05:44;97169.00;;;2.28;74.80
60871;BME280;46714;50.118;14.462;2023-01-16T09:08:09;97160.09;;;2.35;74.81
60871;BME280;46714;50.118;14.462;2023-01-16T09:10:35;97158.22;;;2.42;75.42
60871;BME280;46714;50.118;14.462;2023-01-16T09:13:00;97153.25;;;2.45;74.93
60871;BME280;46714;50.118;14.462;2023-01-16T09:15:45;97155.50;;;2.48;74.71
60871;BME280;46714;50.118;14.462;2023-01-16T09:18:10;97150.13;;;2.48;74.90
60871;BME280;46714;50.118;14.462;2023-01-16T09:20:35;97149.09;;;2.49;75.09
60871;BME280;46714;50.118;14.462;2023-01-16T09:23:01;97142.91;;;2.49;74.78
60871;BME280;46714;50.118;14.462;2023-01-16T09:25:29;97135.25;;;2.53;74.80
60871;BME280;46714;50.118;14.462;2023-01-16T09:27:55;97130.88;;;2.58;74.92
60871;BME280;46714;50.118;14.462;2023-01-16T09:30:20;97118.06;;;2.60;74.52
60871;BME280;46714;50.118;14.462;2023-01-16T09:32:46;97121.56;;;2.61;73.95
60871;BME280;46714;50.118;14.462;2023-01-16T09:35:12;97108.97;;;2.61;74.04
60871;BME280;46714;50.118;14.462;2023-01-16T09:37:37;97111.44;;;2.63;73.82
60871;BME280;46714;50.118;14.462;2023-01-16T09:40:06;97112.84;;;2.65;73.59
60871;BME280;46714;50.118;14.462;2023-01-16T09:42:45;97118.63;;;2.69;74.16
60871;BME280;46714;50.118;14.462;2023-01-16T09:45:41;97102.06;;;2.72;73.63
60871;BME280;46714;50.118;14.462;2023-01-16T09:48:12;97093.81;;;2.73;74.03
60871;BME280;46714;50.118;14.462;2023-01-16T09:50:48;97090.69;;;2.77;73.86
60871;BME280;46714;50.118;14.462;2023-01-16T09:53:30;97084.66;;;2.81;73.46
60871;BME280;46714;50.118;14.462;2023-01-16T09:56:24;97077.00;;;2.85;73.49
60871;BME280;46714;50.118;14.462;2023-01-16T10:04:47;97073.06;;;2.87;73.70
60871;BME280;46714;50.118;14.462;2023-01-16T10:12:41;97033.72;;;2.93;72.93
60871;BME280;46714;50.118;14.462;2023-01-16T10:15:20;97036.22;;;2.94;73.21
60871;BME280;46714;50.118;14.462;2023-01-16T10:23:53;97007.34;;;3.08;72.60
60871;BME280;46714;50.118;14.462;2023-01-16T10:29:29;96997.75;;;3.19;72.73
60871;BME280;46714;50.118;14.462;2023-01-16T10:32:10;96993.72;;;3.28;70.58
60871;BME280;46714;50.118;14.462;2023-01-16T10:34:46;96977.09;;;3.38;70.53
60871;BME280;46714;50.118;14.462;2023-01-16T10:37:19;96982.84;;;3.42;71.82
60871;BME280;46714;50.118;14.462;2023-01-16T10:39:46;96974.53;;;3.43;70.77
60871;BME280;46714;50.118;14.462;2023-01-16T10:42:16;96971.34;;;3.53;70.43
60871;BME280;46714;50.118;14.462;2023-01-16T10:48:01;96962.69;;;3.69;70.40
60871;BME280;46714;50.118;14.462;2023-01-16T10:50:45;96956.16;;;3.77;69.90
60871;BME280;46714;50.118;14.462;2023-01-16T10:53:12;96940.16;;;3.82;70.45
60871;BME280;46714;50.118;14.462;2023-01-16T10:55:38;96936.34;;;3.90;69.26
60871;BME280;46714;50.118;14.462;2023-01-16T11:01:11;96933.13;;;4.11;67.63
60871;BME280;46714;50.118;14.462;2023-01-16T11:03:40;96922.88;;;4.20;65.74
60871;BME280;46714;50.118;14.462;2023-01-16T11:06:13;96920.69;;;4.29;65.94
60871;BME280;46714;50.118;14.462;2023-01-16T11:08:43;96921.41;;;4.36;65.62
60871;BME280;46714;50.118;14.462;2023-01-16T11:11:13;96911.94;;;4.45;65.72
60871;BME280;46714;50.118;14.462;2023-01-16T11:13:59;96899.75;;;4.54;64.83
60871;BME280;46714;50.118;14.462;2023-01-16T11:16:46;96890.16;;;4.58;64.09
60871;BME280;46714;50.118;14.462;2023-01-16T11:19:41;96879.03;;;4.55;64.77
60871;BME280;46714;50.118;14.462;2023-01-16T11:25:04;96857.59;;;4.60;64.57
60871;BME280;46714;50.118;14.462;2023-01-16T11:27:31;96847.28;;;4.69;63.83
60871;BME280;46714;50.118;14.462;2023-01-16T11:30:03;96844.69;;;4.74;63.92
60871;BME280;46714;50.118;14.462;2023-01-16T11:32:34;96827.09;;;4.83;62.02
60871;BME280;46714;50.118;14.462;2023-01-16T11:35:03;96819.75;;;4.90;62.39
60871;BME280;46714;50.118;14.462;2023-01-16T11:37:37;96823.00;;;4.92;61.54
60871;BME280;46714;50.118;14.462;2023-01-16T11:40:06;96820.88;;;4.94;61.60
60871;BME280;46714;50.118;14.462;2023-01-16T11:42:47;96812.44;;;5.02;61.69
60871;BME280;46714;50.118;14.462;2023-01-16T11:45:35;96806.44;;;5.12;62.08
60871;BME280;46714;50.118;14.462;2023-01-16T11:48:25;96791.91;;;5.13;59.53
60871;BME280;46714;50.118;14.462;2023-01-16T11:50:51;96774.09;;;5.12;59.52
60871;BME280;46714;50.118;14.462;2023-01-16T11:53:19;96769.84;;;5.16;58.82
60871;BME280;46714;50.118;14.462;2023-01-16T12:04:59;96730.50;;;5.32;59.73
60871;BME280;46714;50.118;14.462;2023-01-16T12:16:36;96684.00;;;5.42;58.74
60871;BME280;46714;50.118;14.462;2023-01-16T12:24:58;96660.81;;;5.58;58.03
60871;BME280;46714;50.118;14.462;2023-01-16T12:27:45;96655.03;;;5.66;57.32
60871;BME280;46714;50.118;14.462;2023-01-16T12:33:23;96632.75;;;5.76;56.31
60871;BME280;46714;50.118;14.462;2023-01-16T12:41:15;96613.13;;;5.80;55.54
60871;BME280;46714;50.118;14.462;2023-01-16T12:50:07;96577.22;;;5.80;55.83
60871;BME280;46714;50.118;14.462;2023-01-16T12:58:51;96555.47;;;5.86;54.54
60871;BME280;46714;50.118;14.462;2023-01-16T13:03:54;96566.97;;;5.99;53.68
60871;BME280;46714;50.118;14.462;2023-01-16T13:06:39;96561.88;;;6.02;53.60
60871;BME280;46714;50.118;14.462;2023-01-16T13:13:15;96541.41;;;6.06;54.94
60871;BME280;46714;50.118;14.462;2023-01-16T13:15:46;96541.75;;;6.10;52.85
60871;BME280;46714;50.118;14.462;2023-01-16T13:21:08;96523.34;;;6.07;53.94
60871;BME280;46714;50.118;14.462;2023-01-16T13:23:39;96512.56;;;6.07;53.92
60871;BME280;46714;50.118;14.462;2023-01-16T13:26:11;96513.59;;;6.06;54.04
60871;BME280;46714;50.118;14.462;2023-01-16T13:28:42;96507.16;;;6.07;54.08
60871;BME280;46714;50.118;14.462;2023-01-16T13:31:36;96500.09;;;6.06;53.55
60871;BME280;46714;50.118;14.462;2023-01-16T13:34:04;96500.44;;;6.10;53.14
60871;BME280;46714;50.118;14.462;2023-01-16T13:42:10;96489.63;;;6.10;52.55
60871;BME280;46714;50.118;14.462;2023-01-16T13:44:39;96483.94;;;6.11;53.21
60871;BME280;46714;50.118;14.462;2023-01-16T13:47:29;96484.47;;;6.08;53.62
60871;BME280;46714;50.118;14.462;2023-01-16T13:50:03;96478.56;;;6.11;53.20
60871;BME280;46714;50.118;14.462;2023-01-16T13:52:32;96481.81;;;6.13;53.27
60871;BME280;46714;50.118;14.462;2023-01-16T13:55:00;96473.66;;;6.08;54.26
60871;BME280;46714;50.118;14.462;2023-01-16T13:57:31;96466.09;;;6.05;53.89
60871;BME280;46714;50.118;14.462;2023-01-16T13:59:58;96470.16;;;6.07;54.18
60871;BME280;46714;50.118;14.462;2023-01-16T14:08:25;96443.41;;;6.06;54.19
60871;BME280;46714;50.118;14.462;2023-01-16T14:14:27;96440.50;;;6.13;54.92
60871;BME280;46714;50.118;14.462;2023-01-16T14:17:12;96438.13;;;6.16;55.03
60871;BME280;46714;50.118;14.462;2023-01-16T14:19:41;96433.00;;;6.20;55.34
60871;BME280;46714;50.118;14.462;2023-01-16T14:22:17;96431.38;;;6.19;55.54
60871;BME280;46714;50.118;14.462;2023-01-16T14:24:46;96438.66;;;6.18;55.39
60871;BME280;46714;50.118;14.462;2023-01-16T14:27:17;96430.81;;;6.17;55.92
60871;BME280;46714;50.118;14.462;2023-01-16T14:29:55;96424.06;;;6.14;56.16
60871;BME280;46714;50.118;14.462;2023-01-16T14:32:25;96423.16;;;6.08;56.04
60871;BME280;46714;50.118;14.462;2023-01-16T14:34:57;96415.25;;;6.02;56.57
60871;BME280;46714;50.118;14.462;2023-01-16T14:40:02;96419.03;;;5.79;57.95
60871;BME280;46714;50.118;14.462;2023-01-16T14:42:44;96427.94;;;5.79;58.29
60871;BME280;46714;50.118;14.462;2023-01-16T14:48:37;96425.69;;;5.71;59.12
60871;BME280;46714;50.118;14.462;2023-01-16T14:51:28;96422.66;;;5.67;59.56
60871;BME280;46714;50.118;14.462;2023-01-16T14:54:25;96416.88;;;5.59;60.33
60871;BME280;46714;50.118;14.462;2023-01-16T14:57:15;96417.72;;;5.59;60.57
60871;BME280;46714;50.118;14.462;2023-01-16T14:59:49;96417.34;;;5.51;60.91
60871;BME280;46714;50.118;14.462;2023-01-16T15:02:19;96413.50;;;5.46;61.14
60871;BME280;46714;50.118;14.462;2023-01-16T15:10:27;96409.78;;;5.31;61.97
60871;BME280;46714;50.118;14.462;2023-01-16T15:13:12;96414.38;;;5.30;62.62
60871;BME280;46714;50.118;14.462;2023-01-16T15:15:37;96409.16;;;5.23;63.23
60871;BME280;46714;50.118;14.462;2023-01-16T15:18:09;96406.13;;;5.20;62.59
60871;BME280;46714;50.118;14.462;2023-01-16T15:20:57;96400.72;;;5.20;63.21
60871;BME280;46714;50.118;14.462;2023-01-16T15:23:45;96396.66;;;5.17;62.96
60871;BME280;46714;50.118;14.462;2023-01-16T15:26:14;96396.34;;;5.14;63.30
60871;BME280;46714;50.118;14.462;2023-01-16T15:32:12;96399.63;;;4.99;64.18
60871;BME280;46714;50.118;14.462;2023-01-16T15:37:52;96391.06;;;4.85;65.18
60871;BME280;46714;50.118;14.462;2023-01-16T15:40:22;96390.78;;;4.81;65.45
60871;BME280;46714;50.118;14.462;2023-01-16T15:42:52;96386.94;;;4.77;65.97
60871;BME280;46714;50.118;14.462;2023-01-16T15:45:41;96382.28;;;4.73;66.25
60871;BME280;46714;50.118;14.462;2023-01-16T15:51:33;96361.88;;;4.60;66.82
60871;BME280;46714;50.118;14.462;2023-01-16T15:53:58;96354.53;;;4.55;67.46
60871;BME280;46714;50.118;14.462;2023-01-16T15:56:58;96346.13;;;4.52;67.14
60871;BME280;46714;50.118;14.462;2023-01-16T15:59:20;96343.09;;;4.48;67.25
60871;BME280;46714;50.118;14.462;2023-01-16T16:01:47;96343.59;;;4.45;67.37
60871;BME280;46714;50.118;14.462;2023-01-16T16:04:13;96336.84;;;4.43;67.55
60871;BME280;46714;50.118;14.462;2023-01-16T16:06:39;96335.44;;;4.40;67.69